Time;durP1;ratioP1;P1;durP2;ratioP2;P2;SDS_P1;SDS_P2;PMS_P1;PMS_P2;Temp;Humidity;BMP_temperature;BMP_pressure;BME280_temperature;BME280_humidity;BME280_pressure;Samples;Min_cycle;Max_cycle;Signal;HPM_P1;HPM_P2
2021/12/07 00:00:34;;;;;;;14.43;8.88;;;;;;;;;;5075003;28;20080;-73
2021/12/07 00:03:01;;;;;;;16.55;8.80;;;;;;;;;;5074985;28;20110;-73
2021/12/07 00:05:27;;;;;;;13.05;8.00;;;;;;;;;;5074927;28;20061;-73
2021/12/07 00:07:54;;;;;;;13.65;8.10;;;;;;;;;;5074778;28;20084;-74
2021/12/07 00:10:21;;;;;;;13.38;8.65;;;;;;;;;;5074534;28;20068;-72
2021/12/07 00:12:48;;;;;;;14.20;8.82;;;;;;;;;;5074320;28;20111;-73
2021/12/07 00:15:21;;;;;;;15.80;8.23;;;;;;;;;;5072915;28;20406;-73
2021/12/07 00:17:50;;;;;;;15.98;9.25;;;;;;;;;;5074594;28;20103;-73
2021/12/07 00:20:18;;;;;;;15.90;9.10;;;;;;;;;;5075689;28;20465;-73
2021/12/07 00:22:45;;;;;;;12.93;8.55;;;;;;;;;;5074578;28;20085;-73
2021/12/07 00:25:12;;;;;;;16.00;9.57;;;;;;;;;;5074763;28;20140;-73
2021/12/07 00:27:39;;;;;;;16.20;8.93;;;;;;;;;;5074603;28;20057;-73
2021/12/07 00:30:07;;;;;;;14.40;8.70;;;;;;;;;;5074300;28;20056;-74
2021/12/07 00:32:39;;;;;;;13.23;8.38;;;;;;;;;;5075006;28;20120;-74
2021/12/07 00:37:40;;;;;;;13.23;8.70;;;;;;;;;;5074653;28;20854;-74
2021/12/07 00:40:12;;;;;;;12.75;8.13;;;;;;;;;;5074858;28;20108;-73
2021/12/07 00:42:39;;;;;;;13.07;8.05;;;;;;;;;;5074641;28;20080;-74
2021/12/07 00:45:06;;;;;;;13.23;7.88;;;;;;;;;;5075237;28;20061;-73
2021/12/07 00:47:32;;;;;;;14.52;8.77;;;;;;;;;;5075521;28;20539;-73
2021/12/07 00:49:58;;;;;;;14.80;9.15;;;;;;;;;;5075631;28;20072;-74
2021/12/07 00:52:25;;;;;;;12.77;8.32;;;;;;;;;;5074018;28;20125;-73
2021/12/07 00:54:51;;;;;;;14.38;9.18;;;;;;;;;;5076049;28;20469;-73
2021/12/07 00:57:20;;;;;;;16.73;9.93;;;;;;;;;;5075984;28;20299;-72
2021/12/07 00:59:46;;;;;;;14.93;9.68;;;;;;;;;;5075199;28;20065;-72
2021/12/07 01:02:13;;;;;;;17.00;10.00;;;;;;;;;;5074468;28;20087;-73
2021/12/07 01:04:49;;;;;;;15.32;9.77;;;;;;;;;;5076483;28;20061;-73
2021/12/07 01:07:34;;;;;;;17.25;9.90;;;;;;;;;;5074639;28;20092;-73
2021/12/07 01:24:40;;;;;;;15.68;9.52;;;;;;;;;;5074797;28;20455;-72
2021/12/07 01:26:36;;;;;;;17.20;10.57;;;;;;;;;;5074586;28;20077;-73
2021/12/07 01:29:02;;;;;;;16.63;11.45;;;;;;;;;;5074636;28;20057;-73
2021/12/07 01:31:39;;;;;;;17.58;10.82;;;;;;;;;;5074635;28;20088;-73
2021/12/07 01:34:26;;;;;;;21.27;11.50;;;;;;;;;;5073871;28;20049;-73
2021/12/07 01:45:48;;;;;;;18.50;11.90;;;;;;;;;;5076690;28;20545;-73
2021/12/07 02:01:36;;;;;;;17.77;11.85;;;;;;;;;;5075927;28;20109;-72
2021/12/07 02:04:02;;;;;;;22.95;13.20;;;;;;;;;;5075035;28;20405;-73
2021/12/07 02:06:29;;;;;;;18.88;12.05;;;;;;;;;;5073706;28;20148;-73
2021/12/07 02:08:55;;;;;;;24.00;13.02;;;;;;;;;;5074157;28;20138;-73
2021/12/07 02:11:22;;;;;;;23.48;13.55;;;;;;;;;;5073333;28;20242;-73
2021/12/07 02:16:17;;;;;;;21.83;12.77;;;;;;;;;;5072613;28;20156;-73
2021/12/07 02:18:43;;;;;;;21.65;12.98;;;;;;;;;;5069777;28;20088;-73
2021/12/07 02:21:14;;;;;;;25.63;14.60;;;;;;;;;;5071289;28;20057;-73
2021/12/07 02:23:41;;;;;;;25.50;14.02;;;;;;;;;;5071476;28;20168;-73
2021/12/07 02:26:07;;;;;;;19.88;12.63;;;;;;;;;;5072578;28;20081;-73
2021/12/07 02:28:38;;;;;;;21.35;11.98;;;;;;;;;;5074089;28;20056;-74
2021/12/07 02:31:07;;;;;;;19.98;12.00;;;;;;;;;;5073296;28;20126;-73
2021/12/07 02:33:34;;;;;;;26.13;13.27;;;;;;;;;;5074121;28;20068;-74
2021/12/07 02:36:01;;;;;;;21.98;12.20;;;;;;;;;;5074523;28;20179;-73
2021/12/07 02:38:28;;;;;;;21.55;12.40;;;;;;;;;;5073481;28;20061;-73
2021/12/07 02:40:55;;;;;;;21.10;12.23;;;;;;;;;;5074192;28;20156;-73
2021/12/07 02:43:21;;;;;;;21.23;12.35;;;;;;;;;;5073338;28;20092;-73
2021/12/07 02:45:51;;;;;;;20.05;12.00;;;;;;;;;;5072922;28;20104;-73
2021/12/07 02:48:21;;;;;;;22.35;12.65;;;;;;;;;;5074834;28;20443;-73
2021/12/07 02:50:48;;;;;;;21.45;11.90;;;;;;;;;;5075520;28;20085;-73
2021/12/07 02:53:15;;;;;;;16.33;10.77;;;;;;;;;;5075505;28;20088;-73
2021/12/07 02:55:43;;;;;;;19.63;11.55;;;;;;;;;;5073930;28;20312;-73
2021/12/07 02:58:10;;;;;;;22.38;11.90;;;;;;;;;;5073701;28;20347;-73
2021/12/07 03:00:45;;;;;;;17.60;10.88;;;;;;;;;;5074051;28;20061;-74
2021/12/07 03:03:13;;;;;;;20.83;11.27;;;;;;;;;;5072958;28;20053;-74
2021/12/07 03:09:30;;;;;;;19.10;10.93;;;;;;;;;;5076736;28;20060;-73
2021/12/07 03:26:03;;;;;;;14.52;8.90;;;;;;;;;;5077535;28;20092;-73
2021/12/07 03:27:55;;;;;;;17.08;10.23;;;;;;;;;;5073964;28;20746;-73
2021/12/07 03:30:21;;;;;;;17.02;9.65;;;;;;;;;;5078043;28;20064;-74
2021/12/07 03:32:48;;;;;;;13.02;8.85;;;;;;;;;;5078424;28;20061;-73
2021/12/07 03:35:14;;;;;;;18.45;10.95;;;;;;;;;;5077225;28;20091;-73
2021/12/07 03:37:41;;;;;;;18.35;9.88;;;;;;;;;;5077648;28;20061;-74
2021/12/07 03:40:08;;;;;;;17.83;10.10;;;;;;;;;;5077849;28;20234;-73
2021/12/07 03:42:35;;;;;;;17.88;10.32;;;;;;;;;;5077810;28;20067;-74
2021/12/07 03:45:04;;;;;;;14.23;8.80;;;;;;;;;;5078250;28;20084;-73
2021/12/07 03:47:31;;;;;;;13.07;8.98;;;;;;;;;;5077184;28;20061;-73
2021/12/07 03:49:57;;;;;;;17.17;10.07;;;;;;;;;;5078600;28;20065;-73
2021/12/07 03:52:24;;;;;;;18.92;10.85;;;;;;;;;;5077993;28;20505;-73
2021/12/07 03:54:50;;;;;;;17.02;10.73;;;;;;;;;;5075543;28;20057;-73
2021/12/07 03:57:16;;;;;;;15.45;9.98;;;;;;;;;;5076728;28;20197;-73
2021/12/07 03:59:43;;;;;;;15.77;9.35;;;;;;;;;;5076654;28;20784;-73
2021/12/07 04:02:10;;;;;;;16.42;9.63;;;;;;;;;;5076802;28;20095;-73
2021/12/07 04:04:37;;;;;;;15.00;9.70;;;;;;;;;;5076408;28;20092;-73
2021/12/07 04:07:04;;;;;;;14.52;9.63;;;;;;;;;;5078275;28;20067;-73
2021/12/07 04:09:32;;;;;;;13.40;8.90;;;;;;;;;;5077591;28;20059;-74
2021/12/07 04:11:59;;;;;;;16.83;10.45;;;;;;;;;;5077021;28;20060;-73
2021/12/07 04:14:25;;;;;;;15.73;9.90;;;;;;;;;;5074906;28;20056;-73
2021/12/07 04:16:52;;;;;;;15.70;9.85;;;;;;;;;;5075231;28;20409;-73
2021/12/07 04:19:18;;;;;;;15.70;9.40;;;;;;;;;;5074995;28;20084;-73
2021/12/07 04:21:49;;;;;;;18.00;10.68;;;;;;;;;;5075937;28;20056;-73
2021/12/07 04:24:16;;;;;;;21.42;11.48;;;;;;;;;;5075089;28;20067;-72
2021/12/07 04:26:43;;;;;;;17.33;11.13;;;;;;;;;;5074696;28;20097;-73
2021/12/07 04:29:09;;;;;;;17.70;10.82;;;;;;;;;;5076731;28;20139;-73
2021/12/07 04:31:35;;;;;;;15.00;9.40;;;;;;;;;;5075454;28;20071;-73
2021/12/07 04:34:02;;;;;;;16.80;10.20;;;;;;;;;;5075683;28;20068;-73
2021/12/07 04:36:28;;;;;;;19.48;10.70;;;;;;;;;;5075224;28;20115;-73
2021/12/07 04:38:54;;;;;;;21.55;12.27;;;;;;;;;;5076039;28;20159;-73
2021/12/07 04:41:21;;;;;;;15.55;9.63;;;;;;;;;;5076612;28;20134;-73
2021/12/07 04:43:49;;;;;;;20.73;11.30;;;;;;;;;;5075161;28;20097;-73
2021/12/07 04:46:27;;;;;;;17.13;9.98;;;;;;;;;;5076048;28;20068;-73
2021/12/07 04:49:25;;;;;;;16.52;10.20;;;;;;;;;;5075513;28;20135;-73
2021/12/07 04:59:56;;;;;;;14.65;9.55;;;;;;;;;;5075013;28;20303;-73
2021/12/07 05:02:23;;;;;;;14.82;9.38;;;;;;;;;;5075612;28;20064;-74
2021/12/07 05:04:50;;;;;;;14.60;9.88;;;;;;;;;;5074513;28;20068;-73
2021/12/07 05:07:26;;;;;;;17.65;11.45;;;;;;;;;;5072493;28;20090;-73
2021/12/07 05:15:07;;;;;;;15.20;9.65;;;;;;;;;;5071781;28;20061;-66
2021/12/07 05:39:21;;;;;;;11.15;7.90;;;;;;;;;;5071182;28;20209;-67
2021/12/07 05:41:48;;;;;;;15.38;9.23;;;;;;;;;;5058735;28;20068;-66
2021/12/07 05:44:14;;;;;;;12.45;8.20;;;;;;;;;;5053291;28;20065;-66
2021/12/07 05:46:41;;;;;;;14.45;8.82;;;;;;;;;;5053980;28;20427;-67
2021/12/07 05:49:07;;;;;;;14.27;8.35;;;;;;;;;;5052508;28;20443;-66
2021/12/07 05:51:33;;;;;;;11.07;7.45;;;;;;;;;;5084572;28;20065;-74
2021/12/07 05:54:00;;;;;;;12.93;8.43;;;;;;;;;;5095872;28;20061;-74
2021/12/07 05:56:27;;;;;;;15.00;9.45;;;;;;;;;;5097368;28;20057;-74
2021/12/07 05:58:53;;;;;;;16.10;9.98;;;;;;;;;;5093500;28;20176;-74
2021/12/07 06:01:21;;;;;;;19.67;10.60;;;;;;;;;;5093684;28;20056;-74
2021/12/07 06:03:47;;;;;;;15.40;9.20;;;;;;;;;;5091439;28;20104;-73
2021/12/07 06:06:14;;;;;;;15.07;9.80;;;;;;;;;;5076615;28;20107;-73
2021/12/07 06:08:41;;;;;;;15.13;9.93;;;;;;;;;;5073546;28;20143;-74
2021/12/07 06:11:07;;;;;;;15.43;10.07;;;;;;;;;;5073314;28;20048;-73
2021/12/07 06:13:35;;;;;;;14.13;9.35;;;;;;;;;;5070304;28;20139;-73
2021/12/07 06:16:14;;;;;;;16.92;10.50;;;;;;;;;;5069472;28;20223;-74
2021/12/07 06:18:48;;;;;;;17.48;11.10;;;;;;;;;;5071231;28;20068;-74
2021/12/07 06:21:15;;;;;;;17.08;11.38;;;;;;;;;;5058989;28;20053;-73
2021/12/07 06:23:43;;;;;;;22.95;13.10;;;;;;;;;;5069337;28;20364;-73
2021/12/07 06:26:11;;;;;;;25.10;13.38;;;;;;;;;;5071195;28;20054;-74
2021/12/07 06:28:37;;;;;;;19.73;12.65;;;;;;;;;;5071264;28;20140;-73
2021/12/07 06:31:04;;;;;;;19.73;11.63;;;;;;;;;;5055621;28;20058;-73
2021/12/07 06:33:32;;;;;;;19.83;12.40;;;;;;;;;;5075166;28;20053;-73
2021/12/07 06:36:03;;;;;;;18.35;12.07;;;;;;;;;;5094504;28;20163;-74
2021/12/07 06:38:33;;;;;;;17.38;11.43;;;;;;;;;;5075815;28;20055;-74
2021/12/07 06:41:01;;;;;;;18.67;11.02;;;;;;;;;;5075902;28;20164;-73
2021/12/07 06:43:28;;;;;;;17.48;11.68;;;;;;;;;;5077242;28;20053;-74
2021/12/07 06:46:04;;;;;;;19.38;12.63;;;;;;;;;;5074217;28;20177;-73
2021/12/07 06:48:31;;;;;;;20.63;12.30;;;;;;;;;;5072973;28;20155;-74
2021/12/07 06:50:59;;;;;;;18.30;11.60;;;;;;;;;;5084095;28;20518;-73
2021/12/07 06:53:35;;;;;;;16.88;11.35;;;;;;;;;;5060069;28;20053;-73
2021/12/07 06:56:04;;;;;;;18.88;11.65;;;;;;;;;;5073490;28;20211;-73
2021/12/07 06:58:31;;;;;;;17.55;11.02;;;;;;;;;;5057561;28;20061;-73
2021/12/07 07:01:00;;;;;;;21.20;11.90;;;;;;;;;;5055496;28;20452;-73
2021/12/07 07:03:30;;;;;;;26.92;15.95;;;;;;;;;;5055787;28;20159;-74
2021/12/07 07:06:02;;;;;;;24.50;14.35;;;;;;;;;;5054902;28;20467;-74
2021/12/07 07:08:31;;;;;;;24.02;14.63;;;;;;;;;;5070237;28;20151;-74
2021/12/07 07:10:58;;;;;;;17.30;11.45;;;;;;;;;;5057562;28;20084;-74
2021/12/07 07:13:25;;;;;;;18.40;11.50;;;;;;;;;;5056331;28;20081;-74
2021/12/07 07:15:53;;;;;;;21.67;12.23;;;;;;;;;;5056052;28;20065;-74
2021/12/07 07:18:21;;;;;;;18.58;11.10;;;;;;;;;;5058429;28;20423;-73
2021/12/07 07:20:48;;;;;;;16.67;10.18;;;;;;;;;;5078466;28;20049;-73
2021/12/07 07:23:14;;;;;;;15.00;8.48;;;;;;;;;;5077740;28;20061;-74
2021/12/07 07:25:41;;;;;;;14.48;8.50;;;;;;;;;;5076882;28;20135;-74
2021/12/07 07:28:09;;;;;;;12.88;7.15;;;;;;;;;;5076893;28;20406;-74
2021/12/07 07:30:35;;;;;;;11.98;7.35;;;;;;;;;;5077069;28;20068;-74
2021/12/07 07:33:04;;;;;;;12.23;7.85;;;;;;;;;;5078556;28;20060;-74
2021/12/07 07:35:34;;;;;;;11.13;7.72;;;;;;;;;;5078195;28;20825;-73
2021/12/07 07:38:03;;;;;;;12.80;7.80;;;;;;;;;;5077739;28;20061;-73
2021/12/07 07:40:33;;;;;;;12.35;7.18;;;;;;;;;;5076587;28;20732;-74
2021/12/07 07:43:00;;;;;;;13.10;7.45;;;;;;;;;;5076106;28;20056;-73
2021/12/07 07:45:26;;;;;;;12.77;7.82;;;;;;;;;;5077291;28;20068;-73
2021/12/07 07:47:55;;;;;;;17.67;9.73;;;;;;;;;;5068323;28;20394;-73
2021/12/07 07:50:22;;;;;;;16.50;9.20;;;;;;;;;;5056819;28;20197;-72
2021/12/07 07:52:48;;;;;;;21.90;12.02;;;;;;;;;;5058915;28;20163;-73
2021/12/07 07:55:16;;;;;;;20.63;11.38;;;;;;;;;;5075499;28;20057;-72
2021/12/07 07:57:43;;;;;;;23.92;10.70;;;;;;;;;;5076743;28;20725;-73
2021/12/07 08:00:11;;;;;;;26.73;12.93;;;;;;;;;;5069599;28;20140;-73
2021/12/07 08:02:38;;;;;;;24.83;12.73;;;;;;;;;;5075132;28;20061;-73
2021/12/07 08:05:04;;;;;;;28.48;14.63;;;;;;;;;;5076132;28;20037;-72
2021/12/07 08:07:54;;;;;;;30.05;14.30;;;;;;;;;;5078380;28;20053;-72
2021/12/07 08:10:38;;;;;;;30.35;14.82;;;;;;;;;;5076231;28;20071;-73
2021/12/07 08:13:06;;;;;;;33.85;16.25;;;;;;;;;;5075912;28;20143;-73
2021/12/07 08:15:36;;;;;;;35.80;16.33;;;;;;;;;;5074238;28;20431;-73
2021/12/07 08:18:04;;;;;;;35.75;17.58;;;;;;;;;;5060966;28;20087;-73
2021/12/07 08:20:31;;;;;;;36.63;17.23;;;;;;;;;;5062636;28;20105;-73
2021/12/07 08:22:58;;;;;;;41.35;19.67;;;;;;;;;;5077294;28;20049;-73
2021/12/07 08:25:24;;;;;;;39.33;17.45;;;;;;;;;;5077594;28;20068;-73
2021/12/07 08:27:52;;;;;;;44.70;18.50;;;;;;;;;;5089555;28;20113;-72
2021/12/07 08:30:18;;;;;;;46.83;19.77;;;;;;;;;;5096852;28;20057;-72
2021/12/07 08:32:45;;;;;;;46.05;19.75;;;;;;;;;;5096922;28;20056;-73
2021/12/07 08:35:13;;;;;;;43.70;18.10;;;;;;;;;;5097697;28;20052;-73
2021/12/07 08:37:39;;;;;;;46.85;19.73;;;;;;;;;;5058537;28;20061;-73
2021/12/07 08:40:06;;;;;;;50.63;19.45;;;;;;;;;;5055801;28;20054;-73
2021/12/07 08:42:35;;;;;;;48.25;20.30;;;;;;;;;;5042349;28;20102;-74
2021/12/07 08:45:09;;;;;;;49.70;20.63;;;;;;;;;;5036023;28;20093;-74
2021/12/07 08:47:48;;;;;;;44.00;17.52;;;;;;;;;;5038385;28;20062;-74
2021/12/07 08:50:16;;;;;;;51.35;20.35;;;;;;;;;;5045307;28;20061;-73
2021/12/07 08:52:43;;;;;;;51.53;21.25;;;;;;;;;;5044778;28;20060;-74
2021/12/07 09:00:31;;;;;;;48.33;19.77;;;;;;;;;;5033981;28;20123;-73
2021/12/07 09:02:58;;;;;;;50.28;19.90;;;;;;;;;;5033405;28;20057;-73
2021/12/07 09:05:25;;;;;;;45.60;19.55;;;;;;;;;;5034768;28;20771;-73
2021/12/07 09:07:51;;;;;;;39.30;17.42;;;;;;;;;;5035559;28;20061;-73
2021/12/07 09:10:19;;;;;;;43.25;19.33;;;;;;;;;;5034120;28;20096;-73
2021/12/07 09:12:47;;;;;;;48.25;19.92;;;;;;;;;;5033790;28;20482;-73
2021/12/07 09:15:13;;;;;;;50.65;21.73;;;;;;;;;;5032885;28;20132;-73
2021/12/07 09:17:40;;;;;;;48.35;20.13;;;;;;;;;;5033199;28;20470;-73
2021/12/07 09:20:10;;;;;;;61.63;24.02;;;;;;;;;;5044184;28;20061;-74
2021/12/07 09:22:39;;;;;;;92.22;39.65;;;;;;;;;;5054212;28;20118;-73
2021/12/07 09:25:11;;;;;;;61.53;24.80;;;;;;;;;;5054896;28;20104;-73
2021/12/07 09:27:38;;;;;;;54.03;21.98;;;;;;;;;;5054845;28;20049;-73
2021/12/07 09:30:07;;;;;;;55.13;22.08;;;;;;;;;;5054107;28;20791;-72
2021/12/07 09:32:36;;;;;;;52.45;22.33;;;;;;;;;;5055148;28;20057;-72
2021/12/07 09:35:03;;;;;;;68.10;24.17;;;;;;;;;;5052661;28;20068;-73
2021/12/07 09:37:32;;;;;;;51.88;22.67;;;;;;;;;;5053260;28;20800;-73
2021/12/07 09:40:05;;;;;;;60.80;26.55;;;;;;;;;;5053554;28;20054;-73
2021/12/07 09:42:34;;;;;;;51.67;22.83;;;;;;;;;;5053451;28;20065;-73
2021/12/07 09:45:01;;;;;;;55.83;25.35;;;;;;;;;;5053267;28;20061;-73
2021/12/07 09:47:27;;;;;;;61.47;24.42;;;;;;;;;;5052309;28;20062;-73
2021/12/07 09:49:54;;;;;;;60.35;24.83;;;;;;;;;;5054181;28;20664;-73
2021/12/07 09:52:21;;;;;;;66.82;25.38;;;;;;;;;;5052875;28;20061;-71
2021/12/07 09:54:56;;;;;;;70.80;26.70;;;;;;;;;;5054170;28;20071;-73
2021/12/07 09:57:29;;;;;;;68.55;26.08;;;;;;;;;;5037444;28;20371;-73
2021/12/07 09:59:56;;;;;;;72.25;27.90;;;;;;;;;;5054368;28;20122;-72
2021/12/07 10:02:23;;;;;;;68.18;27.05;;;;;;;;;;5051261;28;20057;-73
2021/12/07 10:04:49;;;;;;;73.00;28.85;;;;;;;;;;5052836;28;20384;-72
2021/12/07 10:07:19;;;;;;;65.45;27.25;;;;;;;;;;5054950;28;20072;-72
2021/12/07 10:09:47;;;;;;;63.50;26.55;;;;;;;;;;5054011;28;20061;-72
2021/12/07 10:12:19;;;;;;;63.22;27.30;;;;;;;;;;5056588;28;20148;-73
2021/12/07 10:14:49;;;;;;;66.35;27.17;;;;;;;;;;5055891;28;20107;-72
2021/12/07 10:17:25;;;;;;;67.70;29.30;;;;;;;;;;5057118;28;20057;-73
2021/12/07 10:19:55;;;;;;;67.97;28.42;;;;;;;;;;5053395;28;20080;-72
2021/12/07 10:22:22;;;;;;;56.78;26.33;;;;;;;;;;5039173;28;20152;-73
2021/12/07 10:24:53;;;;;;;65.35;28.23;;;;;;;;;;5039540;28;20152;-73
2021/12/07 10:27:38;;;;;;;59.53;26.98;;;;;;;;;;5047989;28;20069;-73
2021/12/07 10:30:08;;;;;;;88.05;31.20;;;;;;;;;;5035847;28;20058;-74
2021/12/07 10:32:43;;;;;;;65.07;28.33;;;;;;;;;;5039910;28;20085;-73
2021/12/07 10:35:45;;;;;;;64.60;27.08;;;;;;;;;;5053740;28;20478;-73
2021/12/07 10:38:16;;;;;;;68.85;25.92;;;;;;;;;;5018636;28;20338;-72
2021/12/07 10:41:03;;;;;;;56.72;23.45;;;;;;;;;;5034001;28;20515;-73
2021/12/07 10:43:55;;;;;;;62.83;25.35;;;;;;;;;;5054055;28;20069;-74
2021/12/07 10:46:31;;;;;;;63.65;24.17;;;;;;;;;;5041318;28;20058;-73
2021/12/07 10:49:16;;;;;;;63.83;25.67;;;;;;;;;;5056246;28;20175;-72
2021/12/07 10:52:03;;;;;;;73.43;28.08;;;;;;;;;;5057335;28;20077;-73
2021/12/07 10:54:36;;;;;;;66.30;27.38;;;;;;;;;;5038681;28;20117;-73
2021/12/07 10:57:05;;;;;;;63.45;26.77;;;;;;;;;;5049976;28;20061;-73
2021/12/07 10:59:36;;;;;;;60.08;26.67;;;;;;;;;;5056489;28;20061;-73
2021/12/07 11:02:19;;;;;;;63.53;27.73;;;;;;;;;;5039162;28;20053;-74
2021/12/07 11:04:48;;;;;;;72.65;27.63;;;;;;;;;;5036450;28;20062;-75
2021/12/07 11:07:23;;;;;;;67.13;29.48;;;;;;;;;;5034885;28;20038;-73
2021/12/07 11:10:09;;;;;;;66.13;30.27;;;;;;;;;;5053336;28;20061;-74
2021/12/07 11:12:45;;;;;;;70.78;29.73;;;;;;;;;;5056956;28;20656;-73
2021/12/07 11:15:17;;;;;;;76.43;29.83;;;;;;;;;;5043561;28;20062;-74
2021/12/07 11:17:44;;;;;;;69.53;29.75;;;;;;;;;;5037050;28;20081;-73
2021/12/07 11:20:23;;;;;;;65.93;29.93;;;;;;;;;;5037156;28;20061;-73
2021/12/07 11:22:55;;;;;;;58.85;26.02;;;;;;;;;;5037130;28;20255;-73
2021/12/07 11:25:31;;;;;;;64.25;27.90;;;;;;;;;;5037321;28;20058;-73
2021/12/07 11:30:44;;;;;;;59.50;25.58;;;;;;;;;;5035940;28;20069;-73
2021/12/07 11:33:21;;;;;;;48.03;18.75;;;;;;;;;;5037698;28;20906;-72
2021/12/07 11:35:49;;;;;;;44.33;20.52;;;;;;;;;;5054874;28;20167;-74
2021/12/07 11:38:27;;;;;;;49.88;23.13;;;;;;;;;;5053663;28;20054;-74
2021/12/07 11:41:12;;;;;;;44.38;20.88;;;;;;;;;;5053508;28;20068;-74
2021/12/07 11:43:48;;;;;;;48.30;21.98;;;;;;;;;;5053783;28;20472;-74
2021/12/07 11:46:19;;;;;;;58.22;23.40;;;;;;;;;;5053615;28;20057;-74
2021/12/07 11:48:46;;;;;;;60.88;23.95;;;;;;;;;;5056093;28;20138;-74
2021/12/07 11:51:12;;;;;;;58.28;24.08;;;;;;;;;;5051845;28;20161;-74
2021/12/07 11:53:39;;;;;;;59.58;25.48;;;;;;;;;;5035986;28;20061;-74
2021/12/07 11:56:05;;;;;;;60.40;26.40;;;;;;;;;;5036513;28;20057;-74
2021/12/07 11:58:32;;;;;;;63.67;27.50;;;;;;;;;;5035796;28;20128;-74
2021/12/07 12:00:58;;;;;;;57.83;27.38;;;;;;;;;;5034799;28;20066;-74
2021/12/07 12:03:26;;;;;;;67.80;29.95;;;;;;;;;;5036388;28;20165;-74
2021/12/07 12:05:54;;;;;;;67.40;30.50;;;;;;;;;;5053313;28;20061;-74
2021/12/07 12:08:21;;;;;;;61.78;29.02;;;;;;;;;;5054245;28;20622;-73
2021/12/07 12:10:48;;;;;;;61.50;26.63;;;;;;;;;;5054432;28;20467;-74
2021/12/07 12:13:43;;;;;;;57.10;26.25;;;;;;;;;;5054982;28;20458;-74
2021/12/07 12:16:10;;;;;;;69.07;27.30;;;;;;;;;;5055898;28;20093;-74
2021/12/07 12:18:57;;;;;;;66.22;29.95;;;;;;;;;;5055965;28;20538;-73
2021/12/07 12:21:40;;;;;;;63.75;27.42;;;;;;;;;;5056215;28;20061;-74
2021/12/07 12:24:17;;;;;;;67.85;29.38;;;;;;;;;;5055180;28;20516;-74
2021/12/07 12:26:45;;;;;;;82.28;35.15;;;;;;;;;;5053838;28;20058;-74
2021/12/07 12:29:20;;;;;;;69.20;30.30;;;;;;;;;;5055056;28;20061;-74
2021/12/07 12:31:49;;;;;;;59.20;27.27;;;;;;;;;;5052424;28;20064;-74
2021/12/07 12:34:20;;;;;;;64.40;26.92;;;;;;;;;;5050959;28;20447;-74
2021/12/07 12:37:06;;;;;;;55.13;24.92;;;;;;;;;;5046539;28;20464;-74
2021/12/07 12:39:42;;;;;;;62.55;25.85;;;;;;;;;;5049946;28;20065;-74
2021/12/07 12:42:09;;;;;;;59.13;26.10;;;;;;;;;;5054717;28;20187;-74
2021/12/07 12:44:37;;;;;;;72.15;28.77;;;;;;;;;;5048972;28;20084;-74
2021/12/07 12:47:08;;;;;;;71.88;30.02;;;;;;;;;;5043625;28;20134;-74
2021/12/07 12:49:50;;;;;;;77.40;30.13;;;;;;;;;;5052320;28;20158;-74
2021/12/07 12:52:38;;;;;;;76.82;30.55;;;;;;;;;;5035890;28;20058;-74
2021/12/07 12:55:06;;;;;;;68.40;28.27;;;;;;;;;;5035395;28;20061;-73
2021/12/07 12:57:47;;;;;;;55.17;25.45;;;;;;;;;;5036033;28;20161;-73
2021/12/07 13:00:15;;;;;;;51.45;22.80;;;;;;;;;;5052726;28;20072;-74
2021/12/07 13:03:09;;;;;;;46.25;22.38;;;;;;;;;;5054642;28;20440;-73
2021/12/07 13:05:43;;;;;;;41.75;20.27;;;;;;;;;;5054051;28;20053;-73
2021/12/07 13:08:17;;;;;;;41.75;18.92;;;;;;;;;;5054070;28;20088;-73
2021/12/07 13:11:14;;;;;;;35.03;16.95;;;;;;;;;;5053380;28;20077;-74
2021/12/07 13:13:47;;;;;;;35.85;16.20;;;;;;;;;;5048169;28;20053;-73
2021/12/07 13:16:16;;;;;;;29.88;15.70;;;;;;;;;;5049529;28;20157;-73
2021/12/07 13:18:47;;;;;;;27.42;14.52;;;;;;;;;;5051643;28;20061;-73
2021/12/07 13:21:27;;;;;;;31.25;14.95;;;;;;;;;;5053252;28;20413;-73
2021/12/07 13:24:03;;;;;;;31.83;14.55;;;;;;;;;;5053342;28;20080;-73
2021/12/07 13:26:36;;;;;;;26.83;12.40;;;;;;;;;;5046136;28;20124;-73
2021/12/07 13:29:10;;;;;;;29.08;14.90;;;;;;;;;;5049537;28;20057;-74
2021/12/07 13:31:45;;;;;;;27.88;13.30;;;;;;;;;;5054788;28;20058;-73
2021/12/07 13:34:33;;;;;;;29.48;14.52;;;;;;;;;;5052753;28;20451;-73
2021/12/07 13:37:02;;;;;;;28.73;14.40;;;;;;;;;;5051787;28;20128;-73
2021/12/07 13:39:49;;;;;;;28.75;13.85;;;;;;;;;;5051980;28;20061;-73
2021/12/07 13:42:20;;;;;;;29.42;13.48;;;;;;;;;;5052113;28;20092;-73
2021/12/07 13:44:55;;;;;;;27.98;12.63;;;;;;;;;;5051917;28;20155;-73
2021/12/07 13:47:24;;;;;;;26.83;11.45;;;;;;;;;;5052258;28;20099;-72
2021/12/07 13:49:53;;;;;;;28.42;12.52;;;;;;;;;;5035236;28;20089;-73
2021/12/07 13:52:23;;;;;;;25.17;12.93;;;;;;;;;;5031981;28;20058;-73
2021/12/07 13:54:52;;;;;;;28.63;12.93;;;;;;;;;;5030570;28;20064;-73
2021/12/07 13:57:20;;;;;;;27.33;12.85;;;;;;;;;;5032694;28;20092;-73
2021/12/07 14:00:14;;;;;;;23.85;12.70;;;;;;;;;;5032185;28;20053;-73
2021/12/07 14:02:50;;;;;;;28.58;11.40;;;;;;;;;;5045559;28;20124;-73
2021/12/07 14:05:18;;;;;;;27.27;12.73;;;;;;;;;;5049023;28;20058;-73
2021/12/07 14:07:49;;;;;;;25.75;11.18;;;;;;;;;;5034376;28;20068;-73
2021/12/07 14:10:38;;;;;;;27.42;12.35;;;;;;;;;;5038654;28;20151;-73
2021/12/07 14:13:05;;;;;;;21.35;9.43;;;;;;;;;;5033325;28;20118;-73
2021/12/07 14:15:37;;;;;;;25.75;10.70;;;;;;;;;;5034191;28;20460;-74
2021/12/07 14:18:10;;;;;;;21.98;10.82;;;;;;;;;;5033920;28;20217;-73
2021/12/07 14:20:41;;;;;;;20.67;9.05;;;;;;;;;;5051770;28;20054;-73
2021/12/07 14:23:28;;;;;;;19.17;9.68;;;;;;;;;;5051187;28;20049;-74
2021/12/07 14:26:21;;;;;;;21.83;9.32;;;;;;;;;;5052061;28;20107;-74
2021/12/07 14:28:56;;;;;;;21.75;9.07;;;;;;;;;;5048607;28;20061;-74
2021/12/07 14:31:28;;;;;;;19.15;8.63;;;;;;;;;;5050931;28;20058;-74
2021/12/07 14:33:57;;;;;;;17.13;8.77;;;;;;;;;;5052599;28;20061;-73
2021/12/07 14:36:34;;;;;;;16.35;8.70;;;;;;;;;;5052442;28;20407;-74
2021/12/07 14:39:12;;;;;;;18.90;9.48;;;;;;;;;;5049768;28;20137;-74
2021/12/07 14:42:07;;;;;;;21.17;9.63;;;;;;;;;;5051068;28;20092;-74
2021/12/07 14:44:35;;;;;;;20.17;9.57;;;;;;;;;;5050634;28;20057;-74
2021/12/07 14:47:07;;;;;;;25.60;9.48;;;;;;;;;;5048943;28;20062;-74
2021/12/07 14:49:39;;;;;;;20.23;9.67;;;;;;;;;;5050539;28;20063;-73
2021/12/07 14:52:10;;;;;;;22.70;8.93;;;;;;;;;;5051318;28;20724;-74
2021/12/07 14:54:47;;;;;;;22.48;9.60;;;;;;;;;;5049489;28;20058;-74
2021/12/07 14:57:26;;;;;;;17.30;9.48;;;;;;;;;;5049936;28;20142;-74
2021/12/07 15:00:09;;;;;;;18.70;9.80;;;;;;;;;;5047464;28;20436;-74
2021/12/07 15:02:40;;;;;;;18.33;7.70;;;;;;;;;;5041969;28;20849;-75
2021/12/07 15:05:10;;;;;;;22.80;9.68;;;;;;;;;;5049496;28;20111;-74
2021/12/07 15:07:38;;;;;;;20.60;9.48;;;;;;;;;;5042467;28;20158;-74
2021/12/07 15:10:07;;;;;;;21.40;9.18;;;;;;;;;;5052719;28;20061;-74
2021/12/07 15:12:39;;;;;;;17.42;8.45;;;;;;;;;;5033203;28;20062;-75
2021/12/07 15:15:06;;;;;;;16.92;8.57;;;;;;;;;;5034419;28;20042;-75
2021/12/07 15:17:34;;;;;;;18.40;8.55;;;;;;;;;;5039308;28;20072;-74
2021/12/07 15:20:05;;;;;;;27.83;12.48;;;;;;;;;;5053181;28;20803;-74
2021/12/07 15:22:33;;;;;;;21.35;9.40;;;;;;;;;;5048678;28;20147;-75
2021/12/07 15:25:03;;;;;;;24.83;11.52;;;;;;;;;;5051910;28;20163;-75
2021/12/07 15:27:31;;;;;;;27.40;12.18;;;;;;;;;;5045171;28;20111;-74
2021/12/07 15:30:00;;;;;;;23.10;11.57;;;;;;;;;;5048700;28;20064;-75
2021/12/07 15:32:39;;;;;;;24.63;10.65;;;;;;;;;;5036886;28;20054;-74
2021/12/07 15:35:23;;;;;;;23.08;10.70;;;;;;;;;;5033163;28;20116;-74
2021/12/07 15:38:02;;;;;;;24.50;10.43;;;;;;;;;;5033236;28;20478;-75
2021/12/07 15:40:30;;;;;;;28.65;11.82;;;;;;;;;;5033630;28;20062;-74
2021/12/07 15:42:59;;;;;;;20.80;10.85;;;;;;;;;;5032332;28;20803;-75
2021/12/07 15:45:26;;;;;;;17.15;8.45;;;;;;;;;;5033335;28;20093;-74
2021/12/07 15:47:55;;;;;;;12.45;7.25;;;;;;;;;;5037171;28;20061;-75
2021/12/07 15:50:23;;;;;;;20.55;9.88;;;;;;;;;;5073553;28;20148;-74
2021/12/07 15:52:51;;;;;;;17.42;8.90;;;;;;;;;;5048241;28;20105;-75
2021/12/07 15:55:25;;;;;;;14.48;7.75;;;;;;;;;;5031233;28;20058;-74
2021/12/07 15:58:10;;;;;;;18.63;8.68;;;;;;;;;;5033647;28;20809;-74
2021/12/07 16:00:41;;;;;;;21.35;8.60;;;;;;;;;;5041715;28;20148;-74
2021/12/07 16:03:12;;;;;;;18.25;8.77;;;;;;;;;;5055761;28;20155;-75
2021/12/07 16:06:07;;;;;;;13.90;7.60;;;;;;;;;;5063259;28;20053;-74
2021/12/07 16:08:49;;;;;;;18.33;9.07;;;;;;;;;;5049663;28;20053;-74
2021/12/07 16:11:18;;;;;;;16.83;7.72;;;;;;;;;;5051094;28;20058;-74
2021/12/07 16:13:52;;;;;;;18.02;8.82;;;;;;;;;;5040273;28;20093;-74
2021/12/07 16:16:22;;;;;;;17.08;8.70;;;;;;;;;;5032032;28;20066;-74
2021/12/07 16:18:50;;;;;;;14.50;7.57;;;;;;;;;;5031809;28;20407;-74
2021/12/07 16:21:19;;;;;;;15.07;8.15;;;;;;;;;;5033335;28;20057;-74
2021/12/07 16:23:51;;;;;;;12.32;7.07;;;;;;;;;;5031792;28;20108;-74